sensor_id;sensor_type;location;lat;lon;timestamp;P1;durP1;ratioP1;P2;durP2;ratioP2
3815;SDS011;1923;48.154;11.536;2022-08-19T00:01:45;3.77;;;2.63;;
3815;SDS011;1923;48.154;11.536;2022-08-19T00:04:19;3.40;;;2.23;;
3815;SDS011;1923;48.154;11.536;2022-08-19T00:06:50;3.90;;;2.37;;
3815;SDS011;1923;48.154;11.536;2022-08-19T00:09:20;3.33;;;2.67;;
3815;SDS011;1923;48.154;11.536;2022-08-19T00:11:49;3.60;;;2.50;;
3815;SDS011;1923;48.154;11.536;2022-08-19T00:14:19;4.70;;;2.60;;
3815;SDS011;1923;48.154;11.536;2022-08-19T00:16:49;5.33;;;3.67;;
3815;SDS011;1923;48.154;11.536;2022-08-19T00:19:21;3.83;;;2.20;;
3815;SDS011;1923;48.154;11.536;2022-08-19T00:21:50;5.00;;;3.40;;
3815;SDS011;1923;48.154;11.536;2022-08-19T00:24:18;5.43;;;3.17;;
3815;SDS011;1923;48.154;11.536;2022-08-19T00:26:47;4.47;;;2.90;;
3815;SDS011;1923;48.154;11.536;2022-08-19T00:29:17;5.03;;;2.40;;
3815;SDS011;1923;48.154;11.536;2022-08-19T00:31:48;4.40;;;2.90;;
3815;SDS011;1923;48.154;11.536;2022-08-19T00:34:19;5.50;;;3.30;;
3815;SDS011;1923;48.154;11.536;2022-08-19T00:36:48;5.20;;;3.33;;
3815;SDS011;1923;48.154;11.536;2022-08-19T00:39:16;5.63;;;3.30;;
3815;SDS011;1923;48.154;11.536;2022-08-19T00:41:45;5.50;;;3.33;;
3815;SDS011;1923;48.154;11.536;2022-08-19T00:44:16;7.37;;;3.63;;
3815;SDS011;1923;48.154;11.536;2022-08-19T00:46:54;6.57;;;3.37;;
3815;SDS011;1923;48.154;11.536;2022-08-19T00:49:31;4.33;;;3.30;;
3815;SDS011;1923;48.154;11.536;2022-08-19T00:52:04;5.70;;;3.43;;
3815;SDS011;1923;48.154;11.536;2022-08-19T00:54:35;5.17;;;3.23;;
3815;SDS011;1923;48.154;11.536;2022-08-19T00:57:07;6.00;;;3.47;;
3815;SDS011;1923;48.154;11.536;2022-08-19T00:59:41;8.40;;;4.40;;
3815;SDS011;1923;48.154;11.536;2022-08-19T01:02:29;6.57;;;3.50;;
3815;SDS011;1923;48.154;11.536;2022-08-19T01:05:00;7.27;;;4.07;;
3815;SDS011;1923;48.154;11.536;2022-08-19T01:07:31;6.60;;;3.70;;
3815;SDS011;1923;48.154;11.536;2022-08-19T01:10:04;5.47;;;3.80;;
3815;SDS011;1923;48.154;11.536;2022-08-19T01:12:34;6.90;;;3.70;;
3815;SDS011;1923;48.154;11.536;2022-08-19T01:15:02;5.23;;;3.40;;
3815;SDS011;1923;48.154;11.536;2022-08-19T01:17:32;6.20;;;3.77;;
3815;SDS011;1923;48.154;11.536;2022-08-19T01:20:02;5.93;;;3.87;;
3815;SDS011;1923;48.154;11.536;2022-08-19T01:22:32;9.03;;;4.20;;
3815;SDS011;1923;48.154;11.536;2022-08-19T01:25:05;8.23;;;4.93;;
3815;SDS011;1923;48.154;11.536;2022-08-19T01:27:41;6.23;;;3.87;;
3815;SDS011;1923;48.154;11.536;2022-08-19T01:30:11;6.83;;;4.13;;
3815;SDS011;1923;48.154;11.536;2022-08-19T01:32:40;9.07;;;4.17;;
3815;SDS011;1923;48.154;11.536;2022-08-19T01:35:11;8.50;;;5.13;;
3815;SDS011;1923;48.154;11.536;2022-08-19T01:37:47;7.03;;;4.60;;
3815;SDS011;1923;48.154;11.536;2022-08-19T01:40:17;9.10;;;5.37;;
3815;SDS011;1923;48.154;11.536;2022-08-19T01:42:47;9.13;;;5.10;;
3815;SDS011;1923;48.154;11.536;2022-08-19T01:45:17;10.13;;;5.43;;
3815;SDS011;1923;48.154;11.536;2022-08-19T01:47:46;9.10;;;5.57;;
3815;SDS011;1923;48.154;11.536;2022-08-19T01:50:27;7.37;;;4.83;;
3815;SDS011;1923;48.154;11.536;2022-08-19T01:52:56;7.53;;;5.07;;
3815;SDS011;1923;48.154;11.536;2022-08-19T01:55:33;9.37;;;5.10;;
3815;SDS011;1923;48.154;11.536;2022-08-19T01:58:07;12.50;;;5.30;;
3815;SDS011;1923;48.154;11.536;2022-08-19T02:00:38;8.77;;;5.00;;
3815;SDS011;1923;48.154;11.536;2022-08-19T02:03:06;8.90;;;4.97;;
3815;SDS011;1923;48.154;11.536;2022-08-19T02:05:37;7.53;;;4.60;;
3815;SDS011;1923;48.154;11.536;2022-08-19T02:08:07;8.73;;;5.20;;
3815;SDS011;1923;48.154;11.536;2022-08-19T02:10:38;6.33;;;4.00;;
3815;SDS011;1923;48.154;11.536;2022-08-19T02:13:08;5.93;;;3.83;;
3815;SDS011;1923;48.154;11.536;2022-08-19T02:15:37;7.53;;;3.73;;
3815;SDS011;1923;48.154;11.536;2022-08-19T02:18:09;7.63;;;4.20;;
3815;SDS011;1923;48.154;11.536;2022-08-19T02:20:37;5.80;;;3.70;;
3815;SDS011;1923;48.154;11.536;2022-08-19T02:23:08;7.40;;;4.10;;
3815;SDS011;1923;48.154;11.536;2022-08-19T02:25:42;5.17;;;3.40;;
3815;SDS011;1923;48.154;11.536;2022-08-19T02:28:16;7.37;;;4.40;;
3815;SDS011;1923;48.154;11.536;2022-08-19T02:30:44;7.87;;;4.23;;
3815;SDS011;1923;48.154;11.536;2022-08-19T02:33:14;6.00;;;3.47;;
3815;SDS011;1923;48.154;11.536;2022-08-19T02:35:43;5.10;;;3.77;;
3815;SDS011;1923;48.154;11.536;2022-08-19T02:38:21;5.73;;;3.30;;
3815;SDS011;1923;48.154;11.536;2022-08-19T02:40:56;6.47;;;3.57;;
3815;SDS011;1923;48.154;11.536;2022-08-19T02:43:25;6.97;;;4.47;;
3815;SDS011;1923;48.154;11.536;2022-08-19T02:46:00;5.93;;;3.73;;
3815;SDS011;1923;48.154;11.536;2022-08-19T02:48:33;6.17;;;3.63;;
3815;SDS011;1923;48.154;11.536;2022-08-19T02:51:01;5.57;;;3.23;;
3815;SDS011;1923;48.154;11.536;2022-08-19T02:53:31;4.73;;;3.17;;
3815;SDS011;1923;48.154;11.536;2022-08-19T02:55:59;7.07;;;3.77;;
3815;SDS011;1923;48.154;11.536;2022-08-19T02:58:30;6.37;;;3.53;;
3815;SDS011;1923;48.154;11.536;2022-08-19T03:00:58;7.30;;;4.27;;
3815;SDS011;1923;48.154;11.536;2022-08-19T03:03:26;7.03;;;4.33;;
3815;SDS011;1923;48.154;11.536;2022-08-19T03:06:03;6.40;;;3.73;;
3815;SDS011;1923;48.154;11.536;2022-08-19T03:08:33;5.17;;;2.93;;
3815;SDS011;1923;48.154;11.536;2022-08-19T03:11:01;5.70;;;3.60;;
3815;SDS011;1923;48.154;11.536;2022-08-19T03:13:30;5.73;;;3.60;;
3815;SDS011;1923;48.154;11.536;2022-08-19T03:15:58;5.70;;;3.50;;
3815;SDS011;1923;48.154;11.536;2022-08-19T03:18:27;5.00;;;3.37;;
3815;SDS011;1923;48.154;11.536;2022-08-19T03:21:00;4.80;;;3.00;;
3815;SDS011;1923;48.154;11.536;2022-08-19T03:23:29;4.67;;;2.90;;
3815;SDS011;1923;48.154;11.536;2022-08-19T03:25:58;5.00;;;3.43;;
3815;SDS011;1923;48.154;11.536;2022-08-19T03:28:42;4.50;;;3.20;;
3815;SDS011;1923;48.154;11.536;2022-08-19T03:31:23;5.17;;;3.30;;
3815;SDS011;1923;48.154;11.536;2022-08-19T03:34:10;4.40;;;2.90;;
3815;SDS011;1923;48.154;11.536;2022-08-19T03:36:39;5.03;;;3.40;;
3815;SDS011;1923;48.154;11.536;2022-08-19T03:39:07;5.30;;;3.30;;
3815;SDS011;1923;48.154;11.536;2022-08-19T03:41:39;6.20;;;3.73;;
3815;SDS011;1923;48.154;11.536;2022-08-19T03:44:12;4.77;;;3.30;;
3815;SDS011;1923;48.154;11.536;2022-08-19T03:46:44;6.30;;;4.00;;
3815;SDS011;1923;48.154;11.536;2022-08-19T03:49:13;4.20;;;3.13;;
3815;SDS011;1923;48.154;11.536;2022-08-19T03:51:44;6.53;;;3.40;;
3815;SDS011;1923;48.154;11.536;2022-08-19T03:54:14;6.10;;;3.73;;
3815;SDS011;1923;48.154;11.536;2022-08-19T03:56:46;6.20;;;3.10;;
3815;SDS011;1923;48.154;11.536;2022-08-19T03:59:16;4.87;;;3.00;;
3815;SDS011;1923;48.154;11.536;2022-08-19T04:01:46;7.10;;;3.93;;
3815;SDS011;1923;48.154;11.536;2022-08-19T04:04:14;5.27;;;3.43;;
3815;SDS011;1923;48.154;11.536;2022-08-19T04:06:45;8.33;;;3.90;;
3815;SDS011;1923;48.154;11.536;2022-08-19T04:09:13;7.30;;;3.90;;
3815;SDS011;1923;48.154;11.536;2022-08-19T04:11:44;5.73;;;3.40;;
3815;SDS011;1923;48.154;11.536;2022-08-19T04:14:16;5.10;;;3.33;;
3815;SDS011;1923;48.154;11.536;2022-08-19T04:16:46;8.40;;;4.40;;
3815;SDS011;1923;48.154;11.536;2022-08-19T04:19:16;8.10;;;4.20;;
3815;SDS011;1923;48.154;11.536;2022-08-19T04:21:46;9.70;;;4.30;;
3815;SDS011;1923;48.154;11.536;2022-08-19T04:24:16;8.03;;;4.57;;
3815;SDS011;1923;48.154;11.536;2022-08-19T04:26:44;8.70;;;4.00;;
3815;SDS011;1923;48.154;11.536;2022-08-19T04:29:15;5.60;;;3.43;;
3815;SDS011;1923;48.154;11.536;2022-08-19T04:31:45;8.10;;;4.90;;
3815;SDS011;1923;48.154;11.536;2022-08-19T04:34:15;11.53;;;6.03;;
3815;SDS011;1923;48.154;11.536;2022-08-19T04:36:48;9.00;;;4.77;;
3815;SDS011;1923;48.154;11.536;2022-08-19T04:39:19;9.57;;;6.00;;
3815;SDS011;1923;48.154;11.536;2022-08-19T04:41:50;9.70;;;5.10;;
3815;SDS011;1923;48.154;11.536;2022-08-19T04:44:36;8.67;;;5.00;;
3815;SDS011;1923;48.154;11.536;2022-08-19T04:47:11;8.00;;;4.90;;
3815;SDS011;1923;48.154;11.536;2022-08-19T04:49:39;8.87;;;4.57;;
3815;SDS011;1923;48.154;11.536;2022-08-19T04:52:07;8.90;;;5.20;;
3815;SDS011;1923;48.154;11.536;2022-08-19T04:54:36;7.10;;;4.70;;
3815;SDS011;1923;48.154;11.536;2022-08-19T04:57:07;13.83;;;5.30;;
3815;SDS011;1923;48.154;11.536;2022-08-19T04:59:37;10.40;;;4.83;;
3815;SDS011;1923;48.154;11.536;2022-08-19T05:02:06;9.37;;;5.30;;
3815;SDS011;1923;48.154;11.536;2022-08-19T05:04:35;8.77;;;4.97;;
3815;SDS011;1923;48.154;11.536;2022-08-19T05:07:05;8.93;;;4.73;;
3815;SDS011;1923;48.154;11.536;2022-08-19T05:09:34;8.27;;;5.30;;
3815;SDS011;1923;48.154;11.536;2022-08-19T05:12:23;8.40;;;4.53;;
3815;SDS011;1923;48.154;11.536;2022-08-19T05:14:54;9.83;;;5.50;;
3815;SDS011;1923;48.154;11.536;2022-08-19T05:17:23;8.10;;;4.57;;
3815;SDS011;1923;48.154;11.536;2022-08-19T05:19:54;7.70;;;4.57;;
3815;SDS011;1923;48.154;11.536;2022-08-19T05:22:41;10.10;;;5.73;;
3815;SDS011;1923;48.154;11.536;2022-08-19T05:25:11;9.43;;;4.63;;
3815;SDS011;1923;48.154;11.536;2022-08-19T05:27:43;12.90;;;5.07;;
3815;SDS011;1923;48.154;11.536;2022-08-19T05:30:11;9.40;;;5.40;;
3815;SDS011;1923;48.154;11.536;2022-08-19T05:32:40;11.23;;;5.90;;
3815;SDS011;1923;48.154;11.536;2022-08-19T05:35:08;10.23;;;5.17;;
3815;SDS011;1923;48.154;11.536;2022-08-19T05:37:37;10.80;;;5.87;;
3815;SDS011;1923;48.154;11.536;2022-08-19T05:40:07;7.53;;;4.50;;
3815;SDS011;1923;48.154;11.536;2022-08-19T05:42:36;8.93;;;4.80;;
3815;SDS011;1923;48.154;11.536;2022-08-19T05:45:07;7.43;;;4.60;;
3815;SDS011;1923;48.154;11.536;2022-08-19T05:47:36;9.40;;;5.00;;
3815;SDS011;1923;48.154;11.536;2022-08-19T05:50:07;10.03;;;5.60;;
3815;SDS011;1923;48.154;11.536;2022-08-19T05:52:36;9.43;;;5.03;;
3815;SDS011;1923;48.154;11.536;2022-08-19T05:55:15;10.17;;;5.87;;
3815;SDS011;1923;48.154;11.536;2022-08-19T05:57:46;8.13;;;5.33;;
3815;SDS011;1923;48.154;11.536;2022-08-19T06:00:16;10.40;;;5.23;;
3815;SDS011;1923;48.154;11.536;2022-08-19T06:02:49;11.30;;;6.10;;
3815;SDS011;1923;48.154;11.536;2022-08-19T06:05:18;8.80;;;5.53;;
3815;SDS011;1923;48.154;11.536;2022-08-19T06:07:46;9.10;;;6.20;;
3815;SDS011;1923;48.154;11.536;2022-08-19T06:10:15;12.90;;;6.50;;
3815;SDS011;1923;48.154;11.536;2022-08-19T06:12:43;11.43;;;6.40;;
3815;SDS011;1923;48.154;11.536;2022-08-19T06:15:12;9.40;;;5.67;;
3815;SDS011;1923;48.154;11.536;2022-08-19T06:17:42;11.87;;;5.97;;
3815;SDS011;1923;48.154;11.536;2022-08-19T06:20:12;12.50;;;6.57;;
3815;SDS011;1923;48.154;11.536;2022-08-19T06:22:45;11.40;;;6.00;;
3815;SDS011;1923;48.154;11.536;2022-08-19T06:25:14;11.93;;;6.80;;
3815;SDS011;1923;48.154;11.536;2022-08-19T06:27:43;15.30;;;8.03;;
3815;SDS011;1923;48.154;11.536;2022-08-19T06:30:31;11.20;;;6.50;;
3815;SDS011;1923;48.154;11.536;2022-08-19T06:33:01;13.53;;;6.77;;
3815;SDS011;1923;48.154;11.536;2022-08-19T06:35:29;13.20;;;6.70;;
3815;SDS011;1923;48.154;11.536;2022-08-19T06:37:57;10.57;;;6.27;;
3815;SDS011;1923;48.154;11.536;2022-08-19T06:40:25;13.70;;;7.47;;
3815;SDS011;1923;48.154;11.536;2022-08-19T06:42:53;13.30;;;6.73;;
3815;SDS011;1923;48.154;11.536;2022-08-19T06:45:22;11.50;;;6.13;;
3815;SDS011;1923;48.154;11.536;2022-08-19T06:48:01;12.57;;;7.70;;
3815;SDS011;1923;48.154;11.536;2022-08-19T06:50:30;16.13;;;8.37;;
3815;SDS011;1923;48.154;11.536;2022-08-19T06:52:58;18.33;;;7.87;;
3815;SDS011;1923;48.154;11.536;2022-08-19T06:55:29;14.97;;;7.60;;
3815;SDS011;1923;48.154;11.536;2022-08-19T06:58:01;14.63;;;7.57;;
3815;SDS011;1923;48.154;11.536;2022-08-19T07:00:29;11.87;;;6.63;;
3815;SDS011;1923;48.154;11.536;2022-08-19T07:03:01;14.10;;;8.43;;
3815;SDS011;1923;48.154;11.536;2022-08-19T07:05:37;13.97;;;7.43;;
3815;SDS011;1923;48.154;11.536;2022-08-19T07:08:11;15.47;;;8.23;;
3815;SDS011;1923;48.154;11.536;2022-08-19T07:10:42;15.50;;;8.23;;
3815;SDS011;1923;48.154;11.536;2022-08-19T07:13:13;12.83;;;6.07;;
3815;SDS011;1923;48.154;11.536;2022-08-19T07:15:41;13.90;;;7.97;;
3815;SDS011;1923;48.154;11.536;2022-08-19T07:18:11;15.43;;;8.60;;
3815;SDS011;1923;48.154;11.536;2022-08-19T07:20:39;14.80;;;7.97;;
3815;SDS011;1923;48.154;11.536;2022-08-19T07:23:09;18.77;;;9.40;;
3815;SDS011;1923;48.154;11.536;2022-08-19T07:25:41;17.50;;;9.23;;
3815;SDS011;1923;48.154;11.536;2022-08-19T07:28:18;16.27;;;8.60;;
3815;SDS011;1923;48.154;11.536;2022-08-19T07:30:50;18.90;;;10.40;;
3815;SDS011;1923;48.154;11.536;2022-08-19T07:33:20;16.00;;;9.50;;
3815;SDS011;1923;48.154;11.536;2022-08-19T07:35:48;21.50;;;10.57;;
3815;SDS011;1923;48.154;11.536;2022-08-19T07:38:17;19.80;;;10.40;;
3815;SDS011;1923;48.154;11.536;2022-08-19T07:40:45;19.60;;;11.53;;
3815;SDS011;1923;48.154;11.536;2022-08-19T07:43:13;18.53;;;9.40;;
3815;SDS011;1923;48.154;11.536;2022-08-19T07:45:43;23.30;;;11.27;;
3815;SDS011;1923;48.154;11.536;2022-08-19T07:48:13;21.37;;;10.10;;
3815;SDS011;1923;48.154;11.536;2022-08-19T07:50:43;18.60;;;10.00;;
3815;SDS011;1923;48.154;11.536;2022-08-19T07:53:11;20.47;;;11.70;;
3815;SDS011;1923;48.154;11.536;2022-08-19T07:55:39;19.40;;;10.57;;
3815;SDS011;1923;48.154;11.536;2022-08-19T07:58:10;19.40;;;10.10;;
3815;SDS011;1923;48.154;11.536;2022-08-19T08:00:40;18.97;;;9.83;;
3815;SDS011;1923;48.154;11.536;2022-08-19T08:03:09;19.27;;;11.17;;
3815;SDS011;1923;48.154;11.536;2022-08-19T08:05:37;17.80;;;10.57;;
3815;SDS011;1923;48.154;11.536;2022-08-19T08:08:24;21.83;;;10.13;;
3815;SDS011;1923;48.154;11.536;2022-08-19T08:11:14;20.07;;;10.60;;
3815;SDS011;1923;48.154;11.536;2022-08-19T08:13:45;23.80;;;11.00;;
3815;SDS011;1923;48.154;11.536;2022-08-19T08:16:30;20.30;;;10.87;;
3815;SDS011;1923;48.154;11.536;2022-08-19T08:19:05;22.40;;;11.20;;
3815;SDS011;1923;48.154;11.536;2022-08-19T08:21:48;21.40;;;10.70;;
3815;SDS011;1923;48.154;11.536;2022-08-19T08:24:19;22.93;;;11.93;;
3815;SDS011;1923;48.154;11.536;2022-08-19T08:26:53;21.67;;;11.53;;
3815;SDS011;1923;48.154;11.536;2022-08-19T08:29:23;21.33;;;11.50;;
3815;SDS011;1923;48.154;11.536;2022-08-19T08:32:00;26.57;;;12.07;;
3815;SDS011;1923;48.154;11.536;2022-08-19T08:34:39;24.67;;;13.10;;
3815;SDS011;1923;48.154;11.536;2022-08-19T08:37:07;22.33;;;10.83;;
3815;SDS011;1923;48.154;11.536;2022-08-19T08:39:37;24.00;;;12.17;;
3815;SDS011;1923;48.154;11.536;2022-08-19T08:42:07;29.13;;;13.60;;
3815;SDS011;1923;48.154;11.536;2022-08-19T08:44:43;23.13;;;12.63;;
3815;SDS011;1923;48.154;11.536;2022-08-19T08:47:25;22.57;;;12.23;;
3815;SDS011;1923;48.154;11.536;2022-08-19T08:50:00;23.50;;;13.20;;
3815;SDS011;1923;48.154;11.536;2022-08-19T08:52:32;24.40;;;13.40;;
3815;SDS011;1923;48.154;11.536;2022-08-19T08:55:07;31.33;;;14.73;;
3815;SDS011;1923;48.154;11.536;2022-08-19T08:57:44;28.07;;;14.50;;
3815;SDS011;1923;48.154;11.536;2022-08-19T09:00:22;23.83;;;13.20;;
3815;SDS011;1923;48.154;11.536;2022-08-19T09:02:53;28.27;;;13.40;;
3815;SDS011;1923;48.154;11.536;2022-08-19T09:05:25;27.23;;;13.90;;
3815;SDS011;1923;48.154;11.536;2022-08-19T09:08:15;29.23;;;14.90;;
3815;SDS011;1923;48.154;11.536;2022-08-19T09:10:52;33.47;;;14.30;;
3815;SDS011;1923;48.154;11.536;2022-08-19T09:13:25;29.23;;;14.63;;
3815;SDS011;1923;48.154;11.536;2022-08-19T09:16:05;32.93;;;14.43;;
3815;SDS011;1923;48.154;11.536;2022-08-19T09:18:44;28.37;;;14.03;;
3815;SDS011;1923;48.154;11.536;2022-08-19T09:21:15;25.73;;;13.50;;
3815;SDS011;1923;48.154;11.536;2022-08-19T09:23:47;30.67;;;14.67;;
3815;SDS011;1923;48.154;11.536;2022-08-19T09:26:19;27.43;;;13.20;;
3815;SDS011;1923;48.154;11.536;2022-08-19T09:29:00;32.87;;;14.83;;
3815;SDS011;1923;48.154;11.536;2022-08-19T09:31:55;33.77;;;13.80;;
3815;SDS011;1923;48.154;11.536;2022-08-19T09:34:23;29.83;;;14.60;;
3815;SDS011;1923;48.154;11.536;2022-08-19T09:36:51;35.50;;;14.10;;
3815;SDS011;1923;48.154;11.536;2022-08-19T09:39:21;31.20;;;13.60;;
3815;SDS011;1923;48.154;11.536;2022-08-19T09:41:51;28.53;;;12.20;;
3815;SDS011;1923;48.154;11.536;2022-08-19T09:44:23;23.30;;;11.00;;
3815;SDS011;1923;48.154;11.536;2022-08-19T09:46:52;22.67;;;11.13;;
3815;SDS011;1923;48.154;11.536;2022-08-19T09:49:20;22.40;;;10.80;;
3815;SDS011;1923;48.154;11.536;2022-08-19T09:51:49;26.10;;;12.43;;
3815;SDS011;1923;48.154;11.536;2022-08-19T09:54:20;29.97;;;12.40;;
3815;SDS011;1923;48.154;11.536;2022-08-19T09:56:51;30.93;;;12.83;;
3815;SDS011;1923;48.154;11.536;2022-08-19T09:59:20;21.77;;;11.80;;
3815;SDS011;1923;48.154;11.536;2022-08-19T10:01:49;23.10;;;11.93;;
3815;SDS011;1923;48.154;11.536;2022-08-19T10:04:18;23.83;;;11.07;;
3815;SDS011;1923;48.154;11.536;2022-08-19T10:06:48;18.80;;;10.73;;
3815;SDS011;1923;48.154;11.536;2022-08-19T10:09:20;21.40;;;10.37;;
3815;SDS011;1923;48.154;11.536;2022-08-19T10:12:01;22.20;;;11.53;;
3815;SDS011;1923;48.154;11.536;2022-08-19T10:14:31;19.67;;;10.60;;
3815;SDS011;1923;48.154;11.536;2022-08-19T10:17:00;24.20;;;12.40;;
3815;SDS011;1923;48.154;11.536;2022-08-19T10:19:45;16.90;;;9.47;;
3815;SDS011;1923;48.154;11.536;2022-08-19T10:22:21;22.53;;;10.70;;
3815;SDS011;1923;48.154;11.536;2022-08-19T10:24:51;21.97;;;11.47;;
3815;SDS011;1923;48.154;11.536;2022-08-19T10:27:21;23.90;;;11.50;;
3815;SDS011;1923;48.154;11.536;2022-08-19T10:29:52;22.70;;;11.47;;
3815;SDS011;1923;48.154;11.536;2022-08-19T10:32:20;23.10;;;12.20;;
3815;SDS011;1923;48.154;11.536;2022-08-19T10:34:59;21.53;;;9.87;;
3815;SDS011;1923;48.154;11.536;2022-08-19T10:37:31;21.47;;;10.67;;
3815;SDS011;1923;48.154;11.536;2022-08-19T10:40:00;17.93;;;9.10;;
3815;SDS011;1923;48.154;11.536;2022-08-19T10:42:30;15.20;;;8.17;;
3815;SDS011;1923;48.154;11.536;2022-08-19T10:44:59;17.90;;;8.10;;
3815;SDS011;1923;48.154;11.536;2022-08-19T10:47:30;13.37;;;7.20;;
3815;SDS011;1923;48.154;11.536;2022-08-19T10:49:58;15.00;;;7.20;;
3815;SDS011;1923;48.154;11.536;2022-08-19T10:52:45;15.53;;;8.30;;
3815;SDS011;1923;48.154;11.536;2022-08-19T10:55:16;13.17;;;7.70;;
3815;SDS011;1923;48.154;11.536;2022-08-19T10:58:11;14.93;;;7.13;;
3815;SDS011;1923;48.154;11.536;2022-08-19T11:00:41;12.93;;;7.50;;
3815;SDS011;1923;48.154;11.536;2022-08-19T11:03:10;10.27;;;5.70;;
3815;SDS011;1923;48.154;11.536;2022-08-19T11:05:38;11.70;;;6.93;;
3815;SDS011;1923;48.154;11.536;2022-08-19T11:08:08;10.97;;;6.13;;
3815;SDS011;1923;48.154;11.536;2022-08-19T11:10:49;12.73;;;7.47;;
3815;SDS011;1923;48.154;11.536;2022-08-19T11:13:20;11.10;;;6.27;;
3815;SDS011;1923;48.154;11.536;2022-08-19T11:15:55;10.90;;;6.37;;
3815;SDS011;1923;48.154;11.536;2022-08-19T11:18:30;9.80;;;6.43;;
3815;SDS011;1923;48.154;11.536;2022-08-19T11:21:04;12.90;;;6.97;;
3815;SDS011;1923;48.154;11.536;2022-08-19T11:23:34;10.90;;;5.90;;
3815;SDS011;1923;48.154;11.536;2022-08-19T11:26:03;9.07;;;5.50;;
3815;SDS011;1923;48.154;11.536;2022-08-19T11:28:32;11.63;;;6.73;;
3815;SDS011;1923;48.154;11.536;2022-08-19T11:31:00;6.07;;;3.83;;
3815;SDS011;1923;48.154;11.536;2022-08-19T11:33:29;5.10;;;2.87;;
3815;SDS011;1923;48.154;11.536;2022-08-19T11:35:59;6.83;;;3.43;;
3815;SDS011;1923;48.154;11.536;2022-08-19T11:38:27;5.27;;;2.90;;
3815;SDS011;1923;48.154;11.536;2022-08-19T11:40:56;3.30;;;2.03;;
3815;SDS011;1923;48.154;11.536;2022-08-19T11:43:25;4.40;;;2.23;;
3815;SDS011;1923;48.154;11.536;2022-08-19T11:45:56;4.00;;;2.17;;
3815;SDS011;1923;48.154;11.536;2022-08-19T11:48:24;4.23;;;2.30;;
3815;SDS011;1923;48.154;11.536;2022-08-19T11:50:53;3.53;;;2.53;;
3815;SDS011;1923;48.154;11.536;2022-08-19T11:53:22;2.80;;;1.50;;
3815;SDS011;1923;48.154;11.536;2022-08-19T11:55:52;4.20;;;2.10;;
3815;SDS011;1923;48.154;11.536;2022-08-19T11:58:22;3.00;;;1.90;;
3815;SDS011;1923;48.154;11.536;2022-08-19T12:00:51;3.87;;;1.83;;
3815;SDS011;1923;48.154;11.536;2022-08-19T12:03:21;3.07;;;1.70;;
3815;SDS011;1923;48.154;11.536;2022-08-19T12:05:49;2.80;;;1.90;;
3815;SDS011;1923;48.154;11.536;2022-08-19T12:08:18;3.10;;;2.00;;
3815;SDS011;1923;48.154;11.536;2022-08-19T12:10:46;3.63;;;1.90;;
3815;SDS011;1923;48.154;11.536;2022-08-19T12:13:15;2.17;;;1.63;;
3815;SDS011;1923;48.154;11.536;2022-08-19T12:15:45;2.27;;;1.33;;
3815;SDS011;1923;48.154;11.536;2022-08-19T12:18:14;3.50;;;1.33;;
3815;SDS011;1923;48.154;11.536;2022-08-19T12:20:43;2.20;;;1.57;;
3815;SDS011;1923;48.154;11.536;2022-08-19T12:23:12;2.60;;;1.87;;
3815;SDS011;1923;48.154;11.536;2022-08-19T12:25:43;3.20;;;1.80;;
3815;SDS011;1923;48.154;11.536;2022-08-19T12:28:14;1.70;;;1.30;;
3815;SDS011;1923;48.154;11.536;2022-08-19T12:30:42;1.97;;;1.10;;
3815;SDS011;1923;48.154;11.536;2022-08-19T12:33:10;2.63;;;1.57;;
3815;SDS011;1923;48.154;11.536;2022-08-19T12:35:40;1.60;;;1.10;;
3815;SDS011;1923;48.154;11.536;2022-08-19T12:38:12;3.47;;;1.97;;
3815;SDS011;1923;48.154;11.536;2022-08-19T12:40:41;2.13;;;1.30;;
3815;SDS011;1923;48.154;11.536;2022-08-19T12:43:12;2.27;;;1.60;;
3815;SDS011;1923;48.154;11.536;2022-08-19T12:45:41;3.00;;;2.30;;
3815;SDS011;1923;48.154;11.536;2022-08-19T12:48:12;1.90;;;1.40;;
3815;SDS011;1923;48.154;11.536;2022-08-19T12:51:00;0.90;;;0.70;;
3815;SDS011;1923;48.154;11.536;2022-08-19T12:53:35;2.73;;;1.57;;
3815;SDS011;1923;48.154;11.536;2022-08-19T12:56:04;1.47;;;1.17;;
3815;SDS011;1923;48.154;11.536;2022-08-19T12:58:37;1.93;;;1.27;;
3815;SDS011;1923;48.154;11.536;2022-08-19T13:01:17;1.83;;;1.40;;
3815;SDS011;1923;48.154;11.536;2022-08-19T13:03:48;2.47;;;1.70;;
3815;SDS011;1923;48.154;11.536;2022-08-19T13:06:18;1.97;;;1.20;;
3815;SDS011;1923;48.154;11.536;2022-08-19T13:08:49;3.83;;;1.60;;
3815;SDS011;1923;48.154;11.536;2022-08-19T13:11:23;1.40;;;0.90;;
3815;SDS011;1923;48.154;11.536;2022-08-19T13:13:51;1.97;;;1.30;;
3815;SDS011;1923;48.154;11.536;2022-08-19T13:16:21;2.27;;;1.70;;
3815;SDS011;1923;48.154;11.536;2022-08-19T13:18:50;1.90;;;1.20;;
3815;SDS011;1923;48.154;11.536;2022-08-19T13:21:19;2.47;;;1.30;;
3815;SDS011;1923;48.154;11.536;2022-08-19T13:23:50;1.60;;;1.20;;
3815;SDS011;1923;48.154;11.536;2022-08-19T13:26:20;1.73;;;1.10;;
3815;SDS011;1923;48.154;11.536;2022-08-19T13:28:48;2.63;;;1.50;;
3815;SDS011;1923;48.154;11.536;2022-08-19T13:31:34;1.80;;;1.20;;
3815;SDS011;1923;48.154;11.536;2022-08-19T13:34:25;2.13;;;1.40;;
3815;SDS011;1923;48.154;11.536;2022-08-19T13:36:56;2.97;;;2.07;;
3815;SDS011;1923;48.154;11.536;2022-08-19T13:39:26;2.57;;;1.40;;
3815;SDS011;1923;48.154;11.536;2022-08-19T13:41:55;1.97;;;1.20;;
3815;SDS011;1923;48.154;11.536;2022-08-19T13:44:25;2.80;;;1.37;;
3815;SDS011;1923;48.154;11.536;2022-08-19T13:46:59;2.60;;;1.77;;
3815;SDS011;1923;48.154;11.536;2022-08-19T13:49:32;2.00;;;1.60;;
3815;SDS011;1923;48.154;11.536;2022-08-19T13:52:01;2.50;;;1.70;;
3815;SDS011;1923;48.154;11.536;2022-08-19T13:54:31;2.00;;;1.70;;
3815;SDS011;1923;48.154;11.536;2022-08-19T13:57:00;3.93;;;2.37;;
3815;SDS011;1923;48.154;11.536;2022-08-19T13:59:28;3.80;;;1.70;;
3815;SDS011;1923;48.154;11.536;2022-08-19T14:01:57;5.77;;;2.63;;
3815;SDS011;1923;48.154;11.536;2022-08-19T14:04:26;3.40;;;1.97;;
3815;SDS011;1923;48.154;11.536;2022-08-19T14:06:54;2.33;;;1.67;;
3815;SDS011;1923;48.154;11.536;2022-08-19T14:09:22;3.37;;;1.77;;
3815;SDS011;1923;48.154;11.536;2022-08-19T14:11:52;2.90;;;1.87;;
3815;SDS011;1923;48.154;11.536;2022-08-19T14:14:20;3.30;;;2.07;;
3815;SDS011;1923;48.154;11.536;2022-08-19T14:16:48;3.60;;;2.13;;
3815;SDS011;1923;48.154;11.536;2022-08-19T14:19:18;4.33;;;2.90;;
3815;SDS011;1923;48.154;11.536;2022-08-19T14:21:46;3.60;;;1.97;;
3815;SDS011;1923;48.154;11.536;2022-08-19T14:24:14;4.57;;;2.63;;
3815;SDS011;1923;48.154;11.536;2022-08-19T14:26:42;4.10;;;2.00;;
3815;SDS011;1923;48.154;11.536;2022-08-19T14:29:12;3.17;;;2.30;;
3815;SDS011;1923;48.154;11.536;2022-08-19T14:31:40;3.90;;;2.40;;
3815;SDS011;1923;48.154;11.536;2022-08-19T14:34:09;4.20;;;2.50;;
3815;SDS011;1923;48.154;11.536;2022-08-19T14:36:39;2.87;;;2.03;;
3815;SDS011;1923;48.154;11.536;2022-08-19T14:39:08;2.93;;;2.10;;
3815;SDS011;1923;48.154;11.536;2022-08-19T14:41:36;2.90;;;1.97;;
3815;SDS011;1923;48.154;11.536;2022-08-19T14:44:08;3.13;;;2.17;;
3815;SDS011;1923;48.154;11.536;2022-08-19T14:46:40;2.00;;;1.50;;
3815;SDS011;1923;48.154;11.536;2022-08-19T14:49:15;3.17;;;2.07;;
3815;SDS011;1923;48.154;11.536;2022-08-19T14:51:44;5.07;;;2.50;;
3815;SDS011;1923;48.154;11.536;2022-08-19T14:54:14;2.60;;;1.90;;
3815;SDS011;1923;48.154;11.536;2022-08-19T14:56:42;4.00;;;2.33;;
3815;SDS011;1923;48.154;11.536;2022-08-19T14:59:10;4.73;;;2.33;;
3815;SDS011;1923;48.154;11.536;2022-08-19T15:01:40;3.93;;;2.37;;
3815;SDS011;1923;48.154;11.536;2022-08-19T15:04:08;2.00;;;1.67;;
3815;SDS011;1923;48.154;11.536;2022-08-19T15:06:36;2.93;;;1.83;;
3815;SDS011;1923;48.154;11.536;2022-08-19T15:09:05;2.33;;;1.83;;
3815;SDS011;1923;48.154;11.536;2022-08-19T15:11:33;3.57;;;2.13;;
3815;SDS011;1923;48.154;11.536;2022-08-19T15:14:01;2.43;;;2.13;;
3815;SDS011;1923;48.154;11.536;2022-08-19T15:16:31;3.17;;;2.30;;
3815;SDS011;1923;48.154;11.536;2022-08-19T15:19:01;3.20;;;2.07;;